createdAt,value
2023-03-21T00:01:00.737Z,95429.56
2023-03-21T00:03:28.866Z,95429.36
2023-03-21T00:05:57.572Z,95424.15
2023-03-21T00:08:26.553Z,95428.88
2023-03-21T00:11:03.038Z,95425.06
2023-03-21T00:13:38.705Z,95425.76
2023-03-21T00:16:16.786Z,95426.88
2023-03-21T00:18:54.587Z,95430.84
2023-03-21T00:22:05.965Z,95427.79
2023-03-21T00:24:22.161Z,95421.17
2023-03-21T00:26:51.362Z,95423.89
2023-03-21T00:29:20.453Z,95418.06
2023-03-21T00:31:48.643Z,95416.85
2023-03-21T00:34:22.460Z,95411.11
2023-03-21T00:37:01.875Z,95409.84
2023-03-21T00:39:30.013Z,95410.02
2023-03-21T00:41:58.253Z,95409.40
2023-03-21T00:44:27.128Z,95411.28
2023-03-21T00:47:06.635Z,95409.40
2023-03-21T00:49:38.262Z,95407.67
2023-03-21T00:52:17.067Z,95410.61
2023-03-21T00:54:48.706Z,95409.36
2023-03-21T00:57:20.269Z,95405.89
2023-03-21T00:59:50.517Z,95407.98
2023-03-21T01:02:23.158Z,95407.19
2023-03-21T01:04:51.733Z,95408.54
2023-03-21T01:07:20.547Z,95405.45
2023-03-21T01:09:48.819Z,95405.51
2023-03-21T01:12:17.071Z,95403.84
2023-03-21T01:14:45.678Z,95403.52
2023-03-21T01:17:14.269Z,95399.09
2023-03-21T01:19:51.726Z,95394.94
2023-03-21T01:22:21.364Z,95389.29
2023-03-21T01:24:55.557Z,95391.78
2023-03-21T01:27:29.290Z,95387.05
2023-03-21T01:29:58.632Z,95384.08
2023-03-21T01:32:27.109Z,95378.92
2023-03-21T01:34:55.491Z,95375.53
2023-03-21T01:37:26.498Z,95374.75
2023-03-21T01:39:54.778Z,95376.77
2023-03-21T01:42:23.687Z,95379.19
2023-03-21T01:44:55.540Z,95378.80
2023-03-21T01:47:25.963Z,95375.60
2023-03-21T01:50:06.727Z,95374.98
2023-03-21T01:52:50.083Z,95376.04
2023-03-21T01:55:25.679Z,95376.74
2023-03-21T01:58:19.304Z,95374.84
2023-03-21T02:01:08.583Z,95374.34
2023-03-21T02:03:50.946Z,95377.02
2023-03-21T02:06:44.170Z,95379.98
2023-03-21T02:09:35.348Z,95380.12
2023-03-21T02:12:04.318Z,95380.95
2023-03-21T02:14:36.206Z,95377.33
2023-03-21T02:17:33.154Z,95378.29
2023-03-21T02:20:13.918Z,95376.99
2023-03-21T02:22:47.776Z,95380.98
2023-03-21T02:25:22.142Z,95376.11
2023-03-21T02:27:59.751Z,95374.67
2023-03-21T02:30:50.962Z,95372.64
2023-03-21T02:33:29.087Z,95369.62
2023-03-21T02:36:17.155Z,95369.30
2023-03-21T02:39:04.649Z,95368.14
2023-03-21T02:41:55.246Z,95373.21
2023-03-21T02:44:59.163Z,95371.72
2023-03-21T02:47:39.352Z,95376.15
2023-03-21T02:50:16.368Z,95377.61
2023-03-21T02:52:48.288Z,95378.11
2023-03-21T02:55:26.687Z,95375.44
2023-03-21T02:58:11.838Z,95377.22
2023-03-21T03:00:44.938Z,95378.54
2023-03-21T03:03:33.452Z,95376.95
2023-03-21T03:06:13.791Z,95376.91
2023-03-21T03:09:02.208Z,95375.48
2023-03-21T03:11:38.380Z,95372.60
2023-03-21T03:14:40.018Z,95377.92
2023-03-21T03:17:28.563Z,95375.50
2023-03-21T03:20:17.164Z,95376.27
2023-03-21T03:23:16.024Z,95372.58
2023-03-21T03:25:51.297Z,95370.66
2023-03-21T03:28:25.316Z,95372.05
2023-03-21T03:31:08.080Z,95369.60
2023-03-21T03:33:48.108Z,95369.00
2023-03-21T03:36:30.919Z,95370.98
2023-03-21T03:39:04.939Z,95373.62
2023-03-21T03:42:02.997Z,95370.98
2023-03-21T03:44:28.796Z,95375.88
2023-03-21T03:47:06.728Z,95372.31
2023-03-21T03:50:03.505Z,95372.06
2023-03-21T03:52:42.023Z,95372.31
2023-03-21T03:55:19.180Z,95372.05
2023-03-21T03:57:49.682Z,95371.02
2023-03-21T04:00:18.880Z,95366.41
2023-03-21T04:02:49.477Z,95363.86
2023-03-21T04:05:21.559Z,95368.62
2023-03-21T04:07:53.043Z,95364.95
2023-03-21T04:10:28.231Z,95365.34
2023-03-21T04:12:56.456Z,95365.45
2023-03-21T04:15:54.133Z,95362.96
2023-03-21T04:18:23.966Z,95364.95
2023-03-21T04:20:52.830Z,95369.55
2023-03-21T04:23:21.052Z,95375.09
2023-03-21T04:25:56.590Z,95374.85
2023-03-21T04:28:33.700Z,95376.10
2023-03-21T04:31:27.410Z,95378.55
2023-03-21T04:34:10.076Z,95378.42
2023-03-21T04:36:39.552Z,95377.02
2023-03-21T04:39:12.727Z,95372.70
2023-03-21T04:41:46.540Z,95373.58
2023-03-21T04:44:16.062Z,95376.04
2023-03-21T04:46:45.046Z,95380.08
2023-03-21T04:49:13.536Z,95379.29
2023-03-21T04:51:45.426Z,95379.77
2023-03-21T04:54:16.631Z,95376.94
2023-03-21T04:56:45.220Z,95380.71
2023-03-21T04:59:16.038Z,95380.44
2023-03-21T05:01:45.278Z,95381.05
2023-03-21T05:04:14.898Z,95381.77
2023-03-21T05:06:45.133Z,95389.42
2023-03-21T05:09:13.877Z,95389.42
2023-03-21T05:11:42.821Z,95388.78
2023-03-21T05:14:17.543Z,95391.44
2023-03-21T05:16:53.624Z,95391.95
2023-03-21T05:19:26.046Z,95390.47
2023-03-21T05:21:54.660Z,95389.11
2023-03-21T05:24:26.802Z,95389.34
2023-03-21T05:26:56.497Z,95394.00
2023-03-21T05:29:30.025Z,95389.77
2023-03-21T05:32:07.810Z,95392.14
2023-03-21T05:34:36.390Z,95395.47
2023-03-21T05:37:04.553Z,95395.58
2023-03-21T05:39:53.233Z,95398.15
2023-03-21T05:42:28.775Z,95394.27
2023-03-21T05:44:57.335Z,95393.39
2023-03-21T05:47:31.492Z,95392.00
2023-03-21T05:50:01.201Z,95390.70
2023-03-21T05:52:29.907Z,95389.08
2023-03-21T05:54:58.774Z,95385.63
2023-03-21T05:57:29.020Z,95385.77
2023-03-21T06:00:02.343Z,95385.69
2023-03-21T06:02:32.049Z,95387.55
2023-03-21T06:05:02.742Z,95387.41
2023-03-21T06:07:31.050Z,95386.50
2023-03-21T06:09:59.399Z,95387.09
2023-03-21T06:12:27.967Z,95383.23
2023-03-21T06:15:08.984Z,95383.16
2023-03-21T06:17:51.481Z,95381.64
2023-03-21T06:20:19.724Z,95379.74
2023-03-21T06:22:51.965Z,95378.73
2023-03-21T06:25:20.229Z,95374.16
2023-03-21T06:27:48.580Z,95371.51
2023-03-21T06:30:18.356Z,95372.97
2023-03-21T06:32:55.785Z,95373.72
2023-03-21T06:35:24.357Z,95372.14
2023-03-21T06:37:52.759Z,95374.69
2023-03-21T06:40:21.749Z,95371.20
2023-03-21T06:42:49.970Z,95377.39
2023-03-21T06:45:18.477Z,95377.30
2023-03-21T06:47:46.982Z,95372.48
2023-03-21T06:50:25.973Z,95368.46
2023-03-21T06:52:54.176Z,95366.93
2023-03-21T06:55:26.997Z,95364.10
2023-03-21T06:57:57.750Z,95361.90
2023-03-21T07:00:28.288Z,95357.35
2023-03-21T07:02:56.729Z,95356.24
2023-03-21T07:05:27.424Z,95353.77
2023-03-21T07:07:55.765Z,95358.14
2023-03-21T07:10:24.642Z,95362.33
2023-03-21T07:13:04.380Z,95363.29
2023-03-21T07:15:44.238Z,95361.73
2023-03-21T07:18:13.754Z,95365.40
2023-03-21T07:20:51.109Z,95366.30
2023-03-21T07:23:24.108Z,95361.95
2023-03-21T07:25:53.369Z,95363.67
2023-03-21T07:28:23.030Z,95363.55
2023-03-21T07:30:57.422Z,95364.48
2023-03-21T07:33:27.480Z,95364.91
2023-03-21T07:36:00.743Z,95367.22
2023-03-21T07:38:31.061Z,95366.10
2023-03-21T07:41:00.921Z,95366.48
2023-03-21T07:43:32.264Z,95369.59
2023-03-21T07:46:00.883Z,95373.02
2023-03-21T07:48:29.655Z,95372.08
2023-03-21T07:50:58.126Z,95373.52
2023-03-21T07:53:26.805Z,95371.42
2023-03-21T07:55:56.790Z,95368.64
2023-03-21T07:58:26.740Z,95374.06
2023-03-21T08:00:58.400Z,95373.63
2023-03-21T08:03:29.587Z,95375.01
2023-03-21T08:06:00.240Z,95377.38
2023-03-21T08:08:28.463Z,95373.84
2023-03-21T08:10:56.671Z,95372.92
2023-03-21T08:13:26.174Z,95372.27
2023-03-21T08:15:54.439Z,95372.11
2023-03-21T08:18:22.560Z,95375.13
2023-03-21T08:20:54.670Z,95376.25
2023-03-21T08:23:24.914Z,95372.70
2023-03-21T08:25:57.265Z,95371.38
2023-03-21T08:28:25.781Z,95372.38
2023-03-21T08:30:54.052Z,95372.85
2023-03-21T08:33:22.985Z,95373.98
2023-03-21T08:35:51.350Z,95373.17
2023-03-21T08:38:19.442Z,95370.69
2023-03-21T08:40:47.580Z,95371.70
2023-03-21T08:43:16.232Z,95375.13
2023-03-21T08:45:44.400Z,95377.38
2023-03-21T08:48:12.660Z,95372.70
2023-03-21T08:50:41.287Z,95372.81
2023-03-21T08:53:09.499Z,95372.42
2023-03-21T08:55:38.073Z,95367.99
2023-03-21T08:58:07.413Z,95365.80
2023-03-21T09:00:36.435Z,95361.58
2023-03-21T09:03:05.281Z,95360.48
2023-03-21T09:05:33.959Z,95363.67
2023-03-21T09:08:03.449Z,95363.05
2023-03-21T09:10:32.319Z,95366.09
2023-03-21T09:13:01.023Z,95360.54
2023-03-21T09:15:30.198Z,95358.55
2023-03-21T09:18:13.470Z,95359.76
2023-03-21T09:20:43.973Z,95357.55
2023-03-21T09:23:13.996Z,95355.34
2023-03-21T09:25:45.130Z,95350.61
2023-03-21T09:28:14.646Z,95349.77
2023-03-21T09:30:43.150Z,95345.82
2023-03-21T09:33:13.333Z,95346.16
2023-03-21T09:35:43.025Z,95347.35
2023-03-21T09:38:11.418Z,95343.30
2023-03-21T09:40:53.320Z,95340.07
2023-03-21T09:43:41.576Z,95334.29
2023-03-21T09:46:22.314Z,95333.20
2023-03-21T09:49:17.128Z,95334.33
2023-03-21T09:51:48.957Z,95333.09
2023-03-21T09:54:39.508Z,95334.71
2023-03-21T09:57:34.952Z,95333.10
2023-03-21T10:00:09.553Z,95338.15
2023-03-21T10:02:47.328Z,95333.05
2023-03-21T10:05:28.353Z,95336.34
2023-03-21T10:08:07.389Z,95335.05
2023-03-21T10:10:46.089Z,95333.42
2023-03-21T10:13:21.148Z,95331.15
2023-03-21T10:15:49.424Z,95330.14
2023-03-21T10:18:29.960Z,95329.05
2023-03-21T10:20:58.544Z,95326.98
2023-03-21T10:23:29.551Z,95324.25
2023-03-21T10:26:02.254Z,95327.62
2023-03-21T10:28:49.901Z,95324.98
2023-03-21T10:31:26.219Z,95320.89
2023-03-21T10:33:57.865Z,95322.77
2023-03-21T10:36:33.301Z,95322.33
2023-03-21T10:39:19.908Z,95325.09
2023-03-21T10:41:48.271Z,95321.55
2023-03-21T10:44:21.146Z,95317.80
2023-03-21T10:46:56.120Z,95315.84
2023-03-21T10:49:26.930Z,95314.08
2023-03-21T10:51:58.406Z,95309.71
2023-03-21T10:54:31.867Z,95301.77
2023-03-21T10:57:22.635Z,95297.36
2023-03-21T10:59:53.931Z,95295.27
2023-03-21T11:02:31.800Z,95299.09
2023-03-21T11:05:07.537Z,95292.86
2023-03-21T11:07:37.849Z,95291.51
2023-03-21T11:10:29.143Z,95293.77
2023-03-21T11:13:01.709Z,95298.75
2023-03-21T11:15:38.657Z,95302.05
2023-03-21T11:18:23.151Z,95300.38
2023-03-21T11:21:04.125Z,95308.93
2023-03-21T11:23:35.890Z,95312.10
2023-03-21T11:26:12.011Z,95314.98
2023-03-21T11:28:42.491Z,95324.41
2023-03-21T11:31:11.464Z,95325.15
2023-03-21T11:33:51.221Z,95323.08
2023-03-21T11:36:19.369Z,95319.27
2023-03-21T11:38:59.429Z,95314.55
2023-03-21T11:41:33.379Z,95307.66
2023-03-21T11:44:03.505Z,95305.45
2023-03-21T11:46:39.968Z,95299.56
2023-03-21T11:49:10.664Z,95291.27
2023-03-21T11:51:50.130Z,95292.28
2023-03-21T11:54:27.525Z,95290.73
2023-03-21T11:57:08.099Z,95292.55
2023-03-21T12:00:21.041Z,95294.05
2023-03-21T12:03:14.702Z,95292.81
2023-03-21T12:06:06.327Z,95291.73
2023-03-21T12:08:57.737Z,95290.13
2023-03-21T12:11:53.963Z,95285.95
2023-03-21T12:14:42.935Z,95274.66
2023-03-21T12:17:26.469Z,95260.91
2023-03-21T12:20:00.812Z,95260.05
2023-03-21T12:22:41.901Z,95257.20
2023-03-21T12:25:37.654Z,95255.23
2023-03-21T12:28:56.664Z,95249.31
2023-03-21T12:31:33.719Z,95246.75
2023-03-21T12:34:10.627Z,95246.42
2023-03-21T12:36:48.320Z,95250.33
2023-03-21T12:39:29.114Z,95250.60
2023-03-21T12:42:00.219Z,95248.24
2023-03-21T12:44:32.981Z,95252.39
2023-03-21T12:47:18.092Z,95253.36
2023-03-21T12:49:56.878Z,95258.10
2023-03-21T12:52:32.709Z,95254.42
2023-03-21T12:55:28.111Z,95256.11
2023-03-21T12:58:12.267Z,95256.18
2023-03-21T13:00:47.209Z,95251.48
2023-03-21T13:03:39.957Z,95250.93
2023-03-21T13:06:13.610Z,95247.14
2023-03-21T13:09:18.100Z,95245.85
2023-03-21T13:11:51.151Z,95247.77
2023-03-21T13:14:28.879Z,95247.73
2023-03-21T13:17:37.395Z,95243.14
2023-03-21T13:20:20.345Z,95245.27
2023-03-21T13:22:48.773Z,95249.41
2023-03-21T13:25:25.249Z,95253.16
2023-03-21T13:28:19.542Z,95257.88
2023-03-21T13:30:49.041Z,95258.72
2023-03-21T13:33:38.131Z,95263.10
2023-03-21T13:36:08.308Z,95267.31
2023-03-21T13:38:40.400Z,95270.45
2023-03-21T13:41:39.125Z,95271.27
2023-03-21T13:44:22.303Z,95264.73
2023-03-21T13:47:02.472Z,95267.87
2023-03-21T13:49:31.542Z,95266.18
2023-03-21T13:52:21.459Z,95270.77
2023-03-21T13:54:56.142Z,95270.86
2023-03-21T13:57:27.620Z,95260.54
2023-03-21T14:00:21.894Z,95252.64
2023-03-21T14:03:01.263Z,95231.51
2023-03-21T14:05:30.004Z,95212.75
2023-03-21T14:08:15.438Z,95203.19
2023-03-21T14:10:52.599Z,95205.15
2023-03-21T14:13:23.184Z,95206.46
2023-03-21T14:15:56.588Z,95214.41
2023-03-21T14:18:28.414Z,95219.52
2023-03-21T14:21:05.301Z,95228.12
2023-03-21T14:23:39.240Z,95233.67
2023-03-21T14:26:10.452Z,95240.45
2023-03-21T14:28:46.022Z,95237.45
2023-03-21T14:31:19.052Z,95241.66
2023-03-21T14:33:53.414Z,95241.82
2023-03-21T14:36:26.670Z,95246.41
2023-03-21T14:39:04.016Z,95254.91
2023-03-21T14:41:35.101Z,95256.27
2023-03-21T14:44:26.371Z,95266.70
2023-03-21T14:47:05.409Z,95270.71
2023-03-21T14:49:38.412Z,95266.83
2023-03-21T14:52:19.875Z,95270.80
2023-03-21T14:54:48.690Z,95268.11
2023-03-21T14:57:25.246Z,95267.58
2023-03-21T14:59:57.002Z,95268.80
2023-03-21T15:02:36.141Z,95265.89
2023-03-21T15:05:23.994Z,95262.88
2023-03-21T15:08:07.211Z,95259.31
2023-03-21T15:10:36.183Z,95261.45
2023-03-21T15:13:17.224Z,95258.23
2023-03-21T15:15:46.939Z,95254.13
2023-03-21T15:18:21.105Z,95249.86
2023-03-21T15:20:50.654Z,95247.92
2023-03-21T15:23:32.322Z,95248.38
2023-03-21T15:26:03.927Z,95246.48
2023-03-21T15:28:34.948Z,95248.39
2023-03-21T15:31:05.272Z,95258.80
2023-03-21T15:33:33.446Z,95259.40
2023-03-21T15:36:08.611Z,95254.96
2023-03-21T15:38:41.325Z,95250.92
2023-03-21T15:41:21.580Z,95253.98
2023-03-21T15:44:02.142Z,95252.92
2023-03-21T15:46:33.408Z,95250.55
2023-03-21T15:49:32.510Z,95252.58
2023-03-21T15:52:11.456Z,95260.52
2023-03-21T15:54:50.350Z,95259.20
2023-03-21T15:57:32.914Z,95261.85
2023-03-21T16:00:28.133Z,95267.89
2023-03-21T16:03:00.183Z,95267.08
2023-03-21T16:05:33.937Z,95268.58
2023-03-21T16:08:20.041Z,95270.12
2023-03-21T16:10:51.691Z,95270.40
2023-03-21T16:13:20.131Z,95270.15
2023-03-21T16:15:48.266Z,95272.05
2023-03-21T16:18:17.238Z,95272.92
2023-03-21T16:20:46.875Z,95274.23
2023-03-21T16:23:17.449Z,95279.98
2023-03-21T16:25:46.172Z,95288.19
2023-03-21T16:28:17.854Z,95290.75
2023-03-21T16:30:45.912Z,95294.80
2023-03-21T16:33:14.689Z,95298.77
2023-03-21T16:35:42.985Z,95302.00
2023-03-21T16:38:13.428Z,95302.03
2023-03-21T16:40:43.872Z,95304.37
2023-03-21T16:43:12.332Z,95307.68
2023-03-21T16:45:40.462Z,95313.05
2023-03-21T16:48:16.241Z,95314.30
2023-03-21T16:50:48.349Z,95317.05
2023-03-21T16:53:17.307Z,95312.33
2023-03-21T16:55:46.064Z,95308.95
2023-03-21T16:58:16.222Z,95309.13
2023-03-21T17:00:44.711Z,95307.75
2023-03-21T17:03:18.248Z,95305.55
2023-03-21T17:05:46.619Z,95302.65
2023-03-21T17:08:18.061Z,95306.38
2023-03-21T17:10:46.451Z,95306.22
2023-03-21T17:13:14.698Z,95308.02
2023-03-21T17:15:42.969Z,95308.38
2023-03-21T17:18:12.395Z,95307.59
2023-03-21T17:20:41.931Z,95311.38
2023-03-21T17:23:11.239Z,95311.16
2023-03-21T17:25:39.467Z,95312.85
2023-03-21T17:28:07.750Z,95313.02
2023-03-21T17:30:39.429Z,95315.13
2023-03-21T17:33:07.901Z,95314.86
2023-03-21T17:35:36.291Z,95315.17
2023-03-21T17:38:07.017Z,95312.32
2023-03-21T17:40:35.278Z,95314.55
2023-03-21T17:43:03.861Z,95317.52
2023-03-21T17:45:32.134Z,95320.35
2023-03-21T17:48:00.747Z,95321.50
2023-03-21T17:50:34.839Z,95321.09
2023-03-21T17:53:04.750Z,95318.71
2023-03-21T17:55:34.670Z,95321.49
2023-03-21T17:58:03.075Z,95321.51
2023-03-21T18:00:32.922Z,95319.36
2023-03-21T18:03:01.111Z,95314.90
2023-03-21T18:05:29.343Z,95315.71
2023-03-21T18:08:13.079Z,95314.73
2023-03-21T18:10:42.433Z,95310.92
2023-03-21T18:13:11.459Z,95309.77
2023-03-21T18:15:44.846Z,95308.30
2023-03-21T18:18:14.581Z,95312.91
2023-03-21T18:20:53.008Z,95310.75
2023-03-21T18:23:22.761Z,95318.98
2023-03-21T18:25:52.823Z,95316.58
2023-03-21T18:28:22.362Z,95315.47
2023-03-21T18:31:08.253Z,95315.14
2023-03-21T18:33:40.703Z,95313.43
2023-03-21T18:36:10.929Z,95315.20
2023-03-21T18:38:39.955Z,95310.98
2023-03-21T18:41:09.232Z,95313.36
2023-03-21T18:46:27.387Z,95315.53
2023-03-21T18:48:55.783Z,95316.30
2023-03-21T18:51:24.456Z,95314.70
2023-03-21T18:53:52.774Z,95315.08
2023-03-21T18:57:16.631Z,95312.81
2023-03-21T18:59:10.025Z,95315.30
2023-03-21T19:01:38.758Z,95318.37
2023-03-21T19:04:29.711Z,95319.05
2023-03-21T19:06:58.049Z,95317.50
2023-03-21T19:09:31.196Z,95313.83
2023-03-21T19:12:00.847Z,95307.25
2023-03-21T19:14:29.644Z,95302.49
2023-03-21T19:17:47.510Z,95307.25
2023-03-21T19:19:48.152Z,95300.45
2023-03-21T19:22:16.830Z,95301.82
2023-03-21T19:24:47.107Z,95305.31
2023-03-21T19:27:15.351Z,95301.15
2023-03-21T19:29:43.681Z,95303.64
2023-03-21T19:32:12.455Z,95310.78
2023-03-21T19:34:40.962Z,95313.10
2023-03-21T19:37:09.090Z,95312.20
2023-03-21T19:39:38.157Z,95309.84
2023-03-21T19:42:15.959Z,95309.15
2023-03-21T19:44:46.466Z,95312.11
2023-03-21T19:47:14.838Z,95317.02
2023-03-21T19:50:30.791Z,95314.34
2023-03-21T19:52:32.216Z,95313.61
2023-03-21T19:55:00.664Z,95314.19
2023-03-21T19:57:29.146Z,95313.41
2023-03-21T19:59:57.630Z,95317.47
2023-03-21T20:02:35.423Z,95316.41
2023-03-21T20:05:06.882Z,95316.09
2023-03-21T20:07:35.225Z,95317.52
2023-03-21T20:10:04.714Z,95316.98
2023-03-21T20:12:33.466Z,95315.95
2023-03-21T20:15:16.582Z,95315.19
2023-03-21T20:17:47.117Z,95312.51
2023-03-21T20:20:18.115Z,95310.44
2023-03-21T20:23:07.881Z,95307.30
2023-03-21T20:25:41.150Z,95312.98
2023-03-21T20:28:17.232Z,95313.87
2023-03-21T20:30:57.077Z,95317.73
2023-03-21T20:33:26.563Z,95318.84
2023-03-21T20:36:38.104Z,95318.13
2023-03-21T20:38:53.418Z,95319.48
2023-03-21T20:41:21.797Z,95324.80
2023-03-21T20:46:38.525Z,95319.20
2023-03-21T20:49:06.863Z,95319.95
2023-03-21T20:54:24.972Z,95320.45
2023-03-21T20:56:54.086Z,95319.50
2023-03-21T20:59:27.311Z,95320.15
2023-03-21T21:01:57.630Z,95319.34
2023-03-21T21:04:48.153Z,95317.98
2023-03-21T21:07:23.121Z,95320.48
2023-03-21T21:09:51.145Z,95319.38
2023-03-21T21:12:19.654Z,95321.93
2023-03-21T21:14:48.438Z,95325.32
2023-03-21T21:20:16.764Z,95328.52
2023-03-21T21:22:58.426Z,95332.70
2023-03-21T21:25:31.980Z,95333.11
2023-03-21T21:28:01.943Z,95333.52
2023-03-21T21:30:32.580Z,95329.91
2023-03-21T21:33:01.088Z,95328.14
2023-03-21T21:35:30.432Z,95329.14
2023-03-21T21:37:58.655Z,95330.92
2023-03-21T21:40:26.790Z,95331.40
2023-03-21T21:42:55.148Z,95331.06
2023-03-21T21:45:23.577Z,95330.86
2023-03-21T21:47:52.010Z,95328.09
2023-03-21T21:50:22.322Z,95333.46
2023-03-21T21:52:52.952Z,95333.72
2023-03-21T21:55:22.108Z,95329.61
2023-03-21T21:57:50.843Z,95335.55
2023-03-21T22:00:20.263Z,95341.84
2023-03-21T22:02:48.697Z,95347.63
2023-03-21T22:05:17.178Z,95348.44
2023-03-21T22:07:46.748Z,95351.29
2023-03-21T22:10:15.622Z,95353.56
2023-03-21T22:12:43.638Z,95351.88
2023-03-21T22:15:13.215Z,95356.86
2023-03-21T22:17:41.778Z,95354.40
2023-03-21T22:20:13.776Z,95356.80
2023-03-21T22:22:42.536Z,95357.11
2023-03-21T22:25:14.195Z,95361.91
2023-03-21T22:27:42.532Z,95361.85
2023-03-21T22:30:17.347Z,95358.55
2023-03-21T22:32:56.468Z,95356.17
2023-03-21T22:35:27.602Z,95356.73
2023-03-21T22:37:56.183Z,95360.52
2023-03-21T22:40:24.458Z,95362.77
2023-03-21T22:42:52.575Z,95362.22
2023-03-21T22:45:21.225Z,95363.48
2023-03-21T22:47:49.210Z,95367.69
2023-03-21T22:50:17.496Z,95369.34
2023-03-21T22:52:45.654Z,95367.09
2023-03-21T22:55:14.484Z,95368.80
2023-03-21T22:57:42.717Z,95367.73
2023-03-21T23:00:13.557Z,95371.02
2023-03-21T23:02:42.405Z,95370.52
2023-03-21T23:05:11.846Z,95368.86
2023-03-21T23:07:40.220Z,95368.21
2023-03-21T23:10:12.214Z,95367.98
2023-03-21T23:12:41.021Z,95367.88
2023-03-21T23:15:10.338Z,95367.41
2023-03-21T23:17:38.662Z,95368.23
2023-03-21T23:20:08.716Z,95365.27
2023-03-21T23:22:37.414Z,95365.38
2023-03-21T23:25:06.970Z,95364.97
2023-03-21T23:27:35.929Z,95363.96
2023-03-21T23:30:06.548Z,95362.92
2023-03-21T23:32:34.565Z,95362.64
2023-03-21T23:35:02.706Z,95362.42
2023-03-21T23:37:30.923Z,95366.45
2023-03-21T23:39:59.074Z,95363.59
2023-03-21T23:42:29.474Z,95365.04
2023-03-21T23:44:57.701Z,95364.83
2023-03-21T23:47:25.736Z,95363.23
2023-03-21T23:49:54.672Z,95361.80
2023-03-21T23:52:22.724Z,95365.68
2023-03-21T23:54:51.452Z,95363.03
2023-03-21T23:57:19.875Z,95361.30
2023-03-21T23:59:48.290Z,95363.79
